Decoded Metar for FMEP (ST.-PIERRE in REUNION ISLAND) (IATA:ZSE) | Meteo·Mobile Aviation Weather
aviador You're here:

FMEP Decoded Metar

ST.-PIERRE in REUNION ISLAND
Report Time2020-02-23 10:30:00
UTC Time2020-02-23 11:06:13
Flight Rules vfr VFR
Wind240° at 06 kt
W.Decomp.*RWY 33: 2.1 kt HW 5.6 kt LCW
Visibility9999 m
Phenomena:N/A
Clouds:Few 022 Hf
Broken 058 Hf
Expected CloudBase > 3,200 ft AGL from Temp-Dew spread
Ceiling5,800 ft
Temp30°C (ISA +15)
Dew Point22°C (62% RH)
Heat Index33.2°C
QNH1011 hPa
Density Alt2,349 ft
Elevation174 ft
Report Wrong Elevation
Raw Report
FMEP 231030Z AUTO 24006KT 210V270 9999 FEW022 BKN058 30/22 Q1011
NOSIG=

Extra information for FMEP:More info

Metar Taf Metar & Taf Last 4 Metars F.Rules Stats Wind Profile Meteogram Temp Stats Airport Information Weather charts Add Link Nearby VenuesMetar ALERT Operation Metar Decoded Social comments